Latest Weather Observations for Julia Creek

IDQ60801

Issued at 10:32 pm EST Wednesday 8 December 2021 (issued every 10 minutes, with the page automatically refreshed every 10 minutes)

About weather observations | Map of weather stations | Latest weather observations for QLD | Other Formats
Station Details ID: 029058 Name: JULIA CREEK AIRPORT Lat: -20.67 Lon: 141.72 Height: 122.5 m
Data from the previous 72 hours. | See also: Recent months at Julia Creek
Date/Time
EST
Temp
°C
App
Temp
°C
Dew
Point
°C
Rel
Hum
%
Delta-T
°C
Wind Press
QNH
hPa
Press
MSL
hPa
Rain since
9am
mm
Dir  Spd
km/h
Gust
km/h
Spd
kts
Gust
kts
08/10:30pm 26.4 27.0 19.5 66 4.5 NW 15 20 8 11 1009.5 1008.5 0.0
08/10:00pm 26.9 27.2 19.5 64 4.8 NNW 17 20 9 11 1009.5 1008.5 0.0
08/09:30pm 28.1 29.0 18.5 56 6.2 NE 11 13 6 7 1009.2 1008.2 0.0
08/09:00pm 28.9 28.5 18.1 52 6.9 ENE 17 20 9 11 1008.8 1007.8 0.0
08/08:30pm 29.0 29.0 18.1 51 7.0 ENE 15 20 8 11 1008.4 1007.4 0.0
08/08:00pm 29.3 28.5 18.1 51 7.2 ENE 19 24 10 13 1008.3 1007.3 0.0
08/07:30pm 29.7 28.6 17.8 48 7.6 E 20 26 11 14 1008.0 1007.0 0.0
08/07:00pm 31.1 28.9 17.0 42 9.0 E 24 35 13 19 1007.8 1006.8 0.0
08/06:30pm 31.9 29.2 16.6 39 9.7 ESE 26 35 14 19 1007.6 1006.6 0.0
08/06:07pm 32.6 28.9 16.0 36 10.4 SSE 30 43 16 23 1007.3 1006.3 0.0
08/06:00pm 32.6 28.0 16.0 36 10.5 S 35 46 19 25 1007.0 1006.0 0.0
08/05:37pm 32.8 25.5 14.4 33 11.3 SSW 46 65 25 35 1006.1 1005.1 0.0
08/05:30pm 32.8 24.5 14.9 34 11.1 SSW 52 65 28 35 1006.1 1005.1 0.0
08/05:22pm 33.5 27.7 14.0 30 12.0 SSW 37 63 20 34 1005.6 1004.6 0.0
08/05:17pm 34.7 32.0 13.5 28 13.0 SSE 20 61 11 33 1005.9 1004.9 0.0
08/05:00pm 36.4 34.8 15.0 28 13.5 ESE 17 24 9 13 1005.3 1004.4 0.0
08/04:30pm 37.6 36.1 15.4 26 14.1 ESE 17 24 9 13 1005.2 1004.3 0.0
08/04:00pm 36.8 34.9 15.8 28 13.4 ESE 20 30 11 16 1005.7 1004.7 0.0
08/03:30pm 36.7 35.0 16.3 30 13.1 E 20 28 11 15 1006.2 1005.2 0.0
08/03:00pm 37.4 37.2 14.7 26 14.3 WNW 9 17 5 9 1006.6 1005.6 0.0
08/02:30pm 37.3 36.3 14.6 26 14.2 SSE 13 24 7 13 1006.8 1005.8 0.0
08/02:00pm 36.8 35.8 14.7 26 13.9 ESE 13 19 7 10 1007.1 1006.1 0.0
08/01:30pm 37.0 37.3 14.9 27 13.9 N 7 15 4 8 1007.7 1006.7 0.0
08/01:00pm 36.5 36.3 15.6 29 13.3 NNE 11 17 6 9 1008.3 1007.3 0.0
08/12:30pm 36.5 37.0 15.6 29 13.2 NNW 7 13 4 7 1008.8 1007.8 0.0
08/12:00pm 35.6 35.7 16.4 32 12.3 N 11 17 6 9 1009.4 1008.4 0.0
08/11:30am 37.2 36.4 16.2 29 13.5 E 15 22 8 12 1009.6 1008.6 0.0
08/11:00am 37.1 37.4 17.1 30 13.0 SE 11 20 6 11 1010.1 1009.1 0.0
08/10:30am 34.3 35.0 17.1 36 11.1 ENE 9 17 5 9 1010.5 1009.6 0.0
08/10:00am 33.7 34.0 17.8 38 10.3 NE 13 20 7 11 1010.7 1009.8 0.0
08/09:30am 32.7 33.3 18.5 43 9.3 ENE 13 20 7 11 1010.9 1010.0 0.0
08/09:00am 32.5 32.8 18.7 44 9.0 E 15 19 8 10 1010.9 1010.0 0.2
08/08:30am 29.8 30.0 18.6 51 7.3 E 15 20 8 11 1011.0 1010.1 0.2
08/08:00am 28.5 28.6 19.2 57 6.1 ESE 17 20 9 11 1011.0 1010.1 0.2
08/07:30am 27.6 28.0 18.9 59 5.6 SSE 15 19 8 10 1010.8 1009.9 0.2
08/07:00am 26.8 28.1 19.4 64 4.8 E 11 15 6 8 1010.3 1009.3 0.2
08/06:30am 25.4 26.7 19.3 69 3.9 SSE 11 13 6 7 1010.4 1009.5 0.2
08/06:00am 25.0 26.2 19.1 69 3.8 E 11 13 6 7 1010.1 1009.1 0.2
08/05:30am 24.9 26.2 19.3 71 3.6 ESE 11 13 6 7 1009.6 1008.6 0.2
08/05:00am 25.8 25.8 19.0 66 4.4 E 17 22 9 12 1009.0 1008.0 0.2
08/04:30am 25.6 25.2 19.0 67 4.2 ENE 19 26 10 14 1008.8 1007.8 0.2
08/04:00am 25.9 25.4 19.1 66 4.4 ENE 20 24 11 13 1008.7 1007.7 0.0
08/03:30am 28.1 27.6 17.9 54 6.5 ESE 17 24 9 13 1008.7 1007.7 0.0
08/03:00am 28.4 27.3 17.3 51 7.0 E 19 24 10 13 1008.3 1007.3 0.0
08/02:30am 28.9 28.1 17.1 49 7.5 E 17 20 9 11 1008.1 1007.1 0.0
08/02:00am 29.1 28.4 17.3 49 7.5 ESE 17 20 9 11 1008.2 1007.2 0.0
08/01:30am 29.4 28.1 17.2 47 7.7 ESE 20 24 11 13 1008.4 1007.4 0.0
08/01:00am 29.1 28.8 17.3 49 7.5 ESE 15 20 8 11 1008.8 1007.8 0.0
08/12:30am 28.3 28.3 17.2 51 7.0 ESE 13 13 7 7 1009.1 1008.1 0.0
08/12:00am 28.4 27.9 17.0 50 7.2 ESE 15 17 8 9 1009.2 1008.2 0.0
 
Date/Time
EST
Temp
°C
App
Temp
°C
Dew
Point
°C
Rel
Hum
%
Delta-T
°C
Wind Press
QNH
hPa
Press
MSL
hPa
Rain since
9am
mm
Dir  Spd
km/h
Gust
km/h
Spd
kts
Gust
kts
07/11:30pm 28.8 28.1 16.4 47 7.7 SE 15 17 8 9 1009.7 1008.7 0.0
07/11:00pm 29.6 28.3 15.7 43 8.6 ESE 17 20 9 11 1009.8 1008.8 0.0
07/10:30pm 30.2 28.1 16.2 42 8.8 ESE 22 28 12 15 1009.8 1008.8 0.0
07/10:00pm 30.9 28.7 16.9 43 8.9 ESE 24 30 13 16 1009.5 1008.5 0.0
07/09:30pm 31.2 29.4 17.9 45 8.6 ESE 24 30 13 16 1009.2 1008.2 0.0
07/09:00pm 30.9 30.3 17.6 45 8.5 SE 17 20 9 11 1008.8 1007.8 0.0
07/08:30pm 31.1 30.4 17.4 44 8.8 SE 17 20 9 11 1008.3 1007.3 0.0
07/08:00pm 31.5 30.1 16.6 40 9.4 SSE 19 22 10 12 1007.8 1006.8 0.0
07/07:30pm 32.0 30.9 16.3 39 9.9 SSE 17 20 9 11 1007.5 1006.5 0.0
07/07:00pm 32.7 30.9 16.1 37 10.5 SE 20 26 11 14 1007.1 1006.1 0.0
07/06:30pm 32.9 30.5 16.3 37 10.5 SSE 24 30 13 16 1006.7 1005.7 0.0
07/06:00pm 32.4 29.4 16.7 39 10.0 SSE 28 33 15 18 1006.4 1005.4 0.0
07/05:30pm 32.0 28.4 17.1 41 9.5 S 32 39 17 21 1006.5 1005.5 0.0
07/05:00pm 34.1 29.5 15.1 32 11.9 S 33 43 18 23 1006.0 1005.0 0.0
07/04:30pm 33.8 29.4 16.6 35 11.0 S 35 43 19 23 1005.8 1004.8 0.0
07/04:18pm 34.1 31.0 16.5 35 11.2 SSW 28 48 15 26 1005.8 1004.8 0.0
07/04:10pm 35.1 34.6 14.9 29 12.6 SW 11 46 6 25 1005.9 1004.9 0.0
07/04:00pm 37.1 37.5 13.8 25 14.5 SSE 4 9 2 5 1005.7 1004.7 0.0
07/03:30pm 37.2 36.9 13.3 24 14.7 NW 7 20 4 11 1005.9 1004.9 0.0
07/03:00pm 37.7 35.8 13.0 23 15.2 WNW 15 28 8 15 1006.4 1005.4 0.0
07/02:30pm 37.6 36.9 14.2 25 14.6 NNE 11 15 6 8 1006.9 1005.9 0.0
07/02:00pm 37.1 36.3 15.0 27 13.9 N 13 20 7 11 1007.5 1006.5 0.0
07/01:30pm 37.0 36.9 14.9 27 13.9 E 9 13 5 7 1008.0 1007.0 0.0
07/01:00pm 37.4 37.0 15.2 26 14.1 NW 11 20 6 11 1008.5 1007.5 0.0
07/12:30pm 36.0 34.5 15.2 29 13.1 NNE 17 30 9 16 1009.0 1008.0 0.0
07/12:00pm 36.4 35.4 15.5 29 13.2 NNW 15 24 8 13 1009.4 1008.4 0.0
07/11:30am 36.2 35.7 15.9 30 12.9 NE 13 26 7 14 1009.9 1008.9 0.0
07/11:00am 35.6 34.9 15.3 29 12.8 NW 13 20 7 11 1010.4 1009.5 0.0
07/10:30am 34.2 34.3 15.6 32 11.7 NNE 9 17 5 9 1010.9 1010.0 0.0
07/10:00am 33.2 34.6 17.4 39 10.2 E 6 15 3 8 1011.2 1010.3 0.0
07/09:30am 31.7 32.6 17.6 43 9.1 NE 9 20 5 11 1011.3 1010.4 0.0
07/09:00am 30.9 31.9 18.6 48 8.0 E 11 19 6 10 1011.6 1010.7 0.4
07/08:30am 29.9 30.5 18.7 51 7.3 SE 13 19 7 10 1011.5 1010.6 0.4
07/08:00am 29.4 29.7 18.8 53 6.9 SE 15 20 8 11 1011.4 1010.5 0.4
07/07:30am 27.8 27.6 18.5 57 6.0 SSE 17 22 9 12 1011.2 1010.3 0.4
07/07:00am 26.7 26.2 18.6 61 5.2 SSE 19 20 10 11 1011.1 1010.2 0.4
07/06:30am 25.7 25.3 18.1 63 4.8 S 17 24 9 13 1011.2 1010.3 0.4
07/06:00am 24.6 24.1 17.8 66 4.3 S 17 20 9 11 1010.8 1009.9 0.4
07/05:30am 24.4 25.5 18.8 71 3.6 SE 11 15 6 8 1010.9 1010.0 0.4
07/05:00am 24.3 24.3 18.9 72 3.5 SSE 17 22 9 12 1010.3 1009.3 0.4
07/04:30am 23.5 23.3 18.6 74 3.1 SE 17 19 9 10 1009.6 1008.6 0.4
07/04:00am 23.2 23.3 18.3 74 3.1 SSE 15 17 8 9 1009.3 1008.3 0.4
07/03:30am 23.6 23.7 18.3 72 3.3 SE 15 20 8 11 1008.8 1007.8 0.4
07/03:00am 23.9 23.0 18.1 70 3.7 S 20 26 11 14 1008.6 1007.6 0.4
07/02:30am 24.1 24.0 17.8 68 4.0 SSE 15 20 8 11 1008.6 1007.6 0.4
07/02:00am 24.8 24.4 18.0 66 4.3 SSE 17 22 9 12 1008.7 1007.7 0.4
07/01:30am 24.8 24.7 17.8 65 4.4 SSE 15 17 8 9 1008.7 1007.7 0.4
07/01:00am 24.5 24.4 17.0 63 4.7 SSE 13 15 7 8 1009.0 1008.0 0.4
07/12:30am 23.9 23.6 16.4 63 4.6 SSE 13 15 7 8 1009.2 1008.2 0.4
07/12:00am 22.6 21.8 15.0 62 4.5 SSE 13 13 7 7 1009.2 1008.2 0.4
 
Date/Time
EST
Temp
°C
App
Temp
°C
Dew
Point
°C
Rel
Hum
%
Delta-T
°C
Wind Press
QNH
hPa
Press
MSL
hPa
Rain since
9am
mm
Dir  Spd
km/h
Gust
km/h
Spd
kts
Gust
kts
06/11:30pm 23.2 22.2 14.7 58 5.1 ESE 13 15 7 8 1008.9 1007.9 0.4
06/11:00pm 23.9 23.4 14.9 57 5.4 ESE 11 13 6 7 1009.0 1008.0 0.4
06/10:30pm 24.6 23.4 15.0 55 5.8 ESE 15 15 8 8 1009.2 1008.2 0.4
06/10:00pm 25.2 24.1 15.2 54 6.1 ESE 15 17 8 9 1009.1 1008.1 0.4
06/09:30pm 24.7 24.1 14.5 53 6.1 E 11 13 6 7 1008.9 1007.9 0.4
06/09:00pm 25.5 24.5 14.6 51 6.6 ESE 13 15 7 8 1008.5 1007.5 0.4
06/08:30pm 26.0 25.4 14.5 49 6.9 ESE 11 13 6 7 1008.2 1007.2 0.4
06/08:00pm 27.6 26.2 14.6 45 7.9 ESE 15 15 8 8 1007.4 1006.4 0.4
06/07:30pm 29.1 28.1 14.5 41 8.9 E 13 13 7 7 1007.1 1006.1 0.4
06/07:00pm 31.1 31.1 14.3 36 10.3 ENE 7 11 4 6 1007.1 1006.1 0.4
06/06:30pm 32.4 32.1 14.5 33 11.0 ENE 9 13 5 7 1007.1 1006.1 0.4
06/06:00pm 32.2 32.0 14.8 35 10.8 NE 9 17 5 9 1007.0 1006.0 0.4
06/05:30pm 32.5 31.7 14.1 32 11.3 NE 11 15 6 8 1006.7 1005.7 0.4
06/05:00pm 32.7 32.4 14.3 32 11.3 NE 9 13 5 7 1006.7 1005.7 0.4
06/04:30pm 32.6 32.6 15.1 34 10.9 ENE 9 11 5 6 1007.0 1006.0 0.4
06/04:00pm 32.4 31.9 15.0 35 10.8 ENE 11 17 6 9 1007.1 1006.1 0.4
06/03:30pm 31.6 31.1 16.0 39 9.8 ENE 13 19 7 10 1007.2 1006.2 0.4
06/03:00pm 31.4 30.3 15.4 38 10.0 NE 15 20 8 11 1007.5 1006.5 0.4
06/02:30pm 31.3 29.5 16.9 42 9.1 NNE 22 26 12 14 1007.6 1006.6 0.4
06/02:00pm 30.5 28.7 17.9 47 8.1 NE 24 30 13 16 1007.8 1006.8 0.4
06/01:30pm 30.3 28.6 18.1 48 7.9 NE 24 30 13 16 1008.5 1007.5 0.4
06/01:00pm 29.0 27.4 18.4 52 6.8 NE 24 30 13 16 1009.2 1008.2 0.4
06/12:30pm 27.9 27.0 19.1 58 5.7 ENE 22 28 12 15 1010.0 1009.0 0.4
06/12:00pm 27.2 27.1 20.0 64 4.7 ENE 20 28 11 15 1010.7 1009.8 0.4
06/11:30am 25.3 25.8 20.8 76 3.0 ENE 19 24 10 13 1011.3 1010.4 0.4
06/11:00am 25.4 25.2 19.3 69 3.9 E 19 26 10 14 1011.9 1011.0 0.0
06/10:30am 24.7 23.8 19.8 74 3.2 ESE 24 30 13 16 1012.4 1011.5 0.0
06/10:00am 25.3 23.6 18.2 64 4.5 ESE 24 28 13 15 1012.3 1011.4 0.0
06/09:30am 25.1 23.6 18.5 67 4.2 ESE 24 30 13 16 1012.2 1011.3 0.0
06/09:00am 25.0 23.0 18.2 66 4.3 ESE 26 32 14 17 1012.4 1011.5 0.8
06/08:30am 24.2 22.2 18.4 70 3.7 ESE 26 32 14 17 1012.5 1011.6 0.8
06/08:00am 23.7 22.8 19.0 75 3.0 ESE 22 30 12 16 1012.2 1011.3 0.8
06/07:30am 23.2 22.9 18.3 74 3.1 ESE 17 22 9 12 1012.1 1011.2 0.8
06/07:00am 23.2 21.1 18.1 73 3.2 ESE 26 33 14 18 1011.4 1010.5 0.8
06/06:30am 23.0 22.2 18.5 76 2.8 ESE 20 26 11 14 1011.4 1010.5 0.8
06/06:00am 22.6 20.8 18.8 79 2.4 SE 26 35 14 19 1010.8 1009.9 0.8
06/05:30am 22.6 19.5 18.8 79 2.4 SSE 33 41 18 22 1010.1 1009.1 0.8
06/05:00am 22.6 21.6 18.8 79 2.4 SSE 22 35 12 19 1010.0 1009.0 0.8
06/04:30am 22.6 20.8 18.8 79 2.4 SSE 26 35 14 19 1010.1 1009.1 0.8
06/04:00am 23.2 21.2 18.3 74 3.1 SSE 26 35 14 19 1009.9 1008.9 0.8
06/03:30am 22.8 21.4 18.8 78 2.5 SSE 24 32 13 17 1009.9 1008.9 0.8
06/03:00am 23.4 21.2 18.7 75 3.0 S 28 37 15 20 1009.4 1008.4 0.8
06/02:30am 23.6 21.7 18.5 73 3.2 S 26 33 14 18 1009.5 1008.5 0.8
06/02:00am 24.0 22.7 19.1 74 3.1 SSW 24 30 13 16 1009.6 1008.6 0.8
06/01:30am 25.9 25.0 18.1 62 5.0 SSE 20 35 11 19 1009.8 1008.8 0.0
06/01:00am 29.1 27.0 15.2 42 8.6 S 20 28 11 15 1008.7 1007.7 0.0
06/12:30am 28.7 26.0 15.6 45 8.1 S 24 32 13 17 1008.1 1007.1 0.0
06/12:00am 27.9 25.3 15.9 48 7.4 SSE 24 33 13 18 1008.2 1007.2 0.0
 
Date/Time
EST
Temp
°C
App
Temp
°C
Dew
Point
°C
Rel
Hum
%
Delta-T
°C
Wind Press
QNH
hPa
Press
MSL
hPa
Rain since
9am
mm
Dir  Spd
km/h
Gust
km/h
Spd
kts
Gust
kts
05/11:30pm 28.4 26.2 16.0 47 7.7 SE 22 32 12 17 1007.4 1006.4 0.0
05/11:00pm 29.7 26.4 15.0 40 9.0 SE 26 39 14 21 1007.4 1006.4 0.0

Other formats

Comma delimited format used in spreadsheet applications
http://www.bom.gov.au/fwo/IDQ60801/IDQ60801.94337.axf

JavaScript Object Notation format (JSON) in row-major order
http://www.bom.gov.au/fwo/IDQ60801/IDQ60801.94337.json

Data quality

Most of these data are generated automatically and are frequently updated. Quality checks on data are not normally performed. It is possible for incorrect values to appear. Refer to information at About Latest Weather Observations and please check the disclaimer before using these data.